Latest Weather Observations for Sheoaks

IDV60801

Issued at 11:31 am EDT Monday 2 March 2015 (issued every 30 minutes, with the page automatically refreshed every 10 minutes)

About weather observations | Map of weather stations | Latest weather observations for VIC | Other Formats
Station Details ID: 087168 Name: SHEOAKS Lat: -37.91 Lon: 144.13 Height: 236.7 m
Data from the previous 72 hours. | See also: Recent months at Sheoaks
Date/Time
EDT
Temp
°C
App
Temp
°C
Dew
Point
Rel
Hum
%
Delta-T
°C
Wind Press
QNH
hPa
Press
MSL
hPa
Rain
since 9 am
mm
Dir
 
Spd
km/h
Gust
km/h
Spd
kts
Gust
kts
02/11:30am 18.3 15.0 8.0 51 5.3 ENE 15 20 8 11 1017.6 1017.1 0.0
02/11:00am 17.2 14.3 8.1 55 4.7 ENE 13 20 7 11 1018.1 1017.6 0.0
02/10:30am 16.1 12.4 8.1 59 4.1 ENE 17 22 9 12 1018.1 1017.6 0.0
02/10:00am 15.3 11.7 8.3 63 3.6 ENE 17 22 9 12 1018.4 1017.9 0.0
02/09:30am 14.5 12.1 8.7 68 3.0 NE 11 17 6 9 1018.5 1018.0 0.0
02/09:00am 13.2 11.7 10.4 83 1.5 ENE 9 13 5 7 1018.6 1018.1 0.0
02/08:57am 13.1 11.7 11.0 87 1.1 NE 9 13 5 7 1018.5 1018.0 0.0
02/08:30am 8.1 6.3 7.3 95 0.4 N 6 6 3 3 1018.5 1018.0 0.0
02/08:00am 6.0 3.6 5.3 95 0.3 N 7 9 4 5 1018.4 1017.9 0.0
02/07:30am 5.5 3.0 4.8 95 0.3 NNW 7 9 4 5 1018.4 1017.9 0.0
02/07:00am 5.3 2.4 4.4 94 0.4 N 9 11 5 6 1018.0 1017.5 0.0
02/06:30am 5.4 2.9 4.5 94 0.4 N 7 9 4 5 1017.9 1017.4 0.0
02/06:00am 5.8 2.9 4.9 94 0.4 N 9 9 5 5 1017.8 1017.3 0.0
02/05:30am 5.9 3.4 5.0 94 0.4 N 7 9 4 5 1017.8 1017.3 0.0
02/05:00am 6.3 3.6 5.4 94 0.4 N 9 11 5 6 1018.1 1017.6 0.0
02/04:30am 6.4 4.0 5.4 93 0.4 NNW 7 9 4 5 1017.9 1017.4 0.0
02/04:00am 6.9 4.6 5.8 93 0.5 N 7 9 4 5 1018.0 1017.5 0.0
02/03:30am 6.9 4.6 5.8 93 0.5 N 7 9 4 5 1018.2 1017.7 0.0
02/03:00am 7.4 5.2 6.2 92 0.6 N 7 9 4 5 1018.6 1018.1 0.0
02/02:30am 7.9 5.9 6.4 90 0.7 N 6 7 3 4 1018.7 1018.2 0.0
02/02:00am 8.4 6.8 6.5 88 0.9 NNW 4 6 2 3 1019.1 1018.6 0.0
02/01:30am 8.7 6.7 7.0 89 0.8 NNW 7 7 4 4 1019.6 1019.2 0.0
02/01:00am 9.4 7.6 7.0 85 1.1 NNW 6 7 3 4 1019.3 1018.8 0.0
02/12:30am 10.7 8.9 7.2 79 1.7 WNW 6 7 3 4 1019.1 1018.6 0.0
02/12:00am 11.1 10.4 7.0 76 2.0 CALM 0 2 0 1 1018.7 1018.2 0.0
 
Date/Time
EDT
Temp
°C
App
Temp
°C
Dew
Point
Rel
Hum
%
Delta-T
°C
Wind Press
QNH
hPa
Press
MSL
hPa
Rain
since 9 am
mm
Dir
 
Spd
km/h
Gust
km/h
Spd
kts
Gust
kts
01/11:30pm 12.0 11.1 7.7 75 2.1 SSW 2 6 1 3 1019.1 1018.6 0.0
01/11:00pm 12.4 11.2 7.9 74 2.2 S 4 7 2 4 1019.2 1018.7 0.0
01/10:30pm 12.5 11.3 8.0 74 2.2 SSE 4 6 2 3 1019.2 1018.7 0.0
01/10:00pm 12.7 11.6 8.4 75 2.2 SSE 4 6 2 3 1019.2 1018.7 0.0
01/09:30pm 13.0 11.4 8.7 75 2.2 SE 7 11 4 6 1019.1 1018.6 0.0
01/09:00pm 13.2 11.8 8.7 74 2.3 SSE 6 9 3 5 1018.6 1018.1 0.0
01/08:30pm 13.8 11.0 8.6 71 2.6 SE 13 19 7 10 1018.4 1017.9 0.0
01/08:00pm 14.2 11.6 9.2 72 2.6 SE 13 20 7 11 1018.0 1017.5 0.0
01/07:30pm 15.3 12.4 9.7 69 2.9 SE 15 22 8 12 1017.5 1017.0 0.0
01/07:00pm 16.3 13.0 9.7 65 3.5 SSE 17 24 9 13 1017.4 1016.9 0.0
01/06:30pm 16.7 13.1 9.9 64 3.6 SE 19 28 10 15 1017.4 1016.9 0.0
01/06:00pm 17.4 13.9 10.3 63 3.8 SSE 19 28 10 15 1016.8 1016.3 0.0
01/05:30pm 18.3 15.2 10.4 60 4.3 SSE 17 26 9 14 1016.5 1016.0 0.0
01/05:00pm 19.4 16.2 11.2 59 4.5 SSE 19 26 10 14 1016.3 1015.8 0.0
01/04:30pm 20.0 17.0 10.7 55 5.1 SSE 17 26 9 14 1015.7 1015.2 0.0
01/04:00pm 19.6 17.3 10.3 55 5.1 SE 13 19 7 10 1015.6 1015.1 0.0
01/03:30pm 19.9 17.1 10.0 53 5.4 SSE 15 22 8 12 1015.5 1015.0 0.0
01/03:00pm 20.5 16.9 8.2 45 6.5 SSW 17 28 9 15 1015.4 1014.9 0.0
01/02:30pm 20.3 16.5 7.7 44 6.6 SW 17 30 9 16 1015.3 1014.8 0.0
01/02:00pm 20.6 18.2 10.1 51 5.7 SSW 13 24 7 13 1015.0 1014.5 0.0
01/01:30pm 18.5 15.3 10.1 58 4.5 SSW 17 26 9 14 1015.2 1014.7 0.0
01/01:00pm 19.5 16.7 10.0 54 5.1 SSW 15 24 8 13 1014.9 1014.4 0.0
01/12:30pm 18.9 15.8 10.2 57 4.7 SSW 17 24 9 13 1014.9 1014.4 0.0
01/12:00pm 18.6 16.4 10.9 61 4.2 SSW 13 22 7 12 1014.9 1014.4 0.0
01/11:30am 17.4 15.6 10.8 65 3.6 SW 11 20 6 11 1014.7 1014.2 0.0
01/11:00am 17.1 15.3 10.9 67 3.4 SSW 11 19 6 10 1014.3 1013.8 0.0
01/10:30am 16.8 15.2 11.7 72 2.8 SSW 11 17 6 9 1014.0 1013.3 0.0
01/10:00am 15.7 14.1 11.7 77 2.2 SW 11 19 6 10 1013.7 1013.0 0.0
01/09:30am 15.4 14.4 12.3 82 1.7 WSW 9 19 5 10 1013.2 1012.5 0.0
01/09:00am 14.4 13.6 11.6 83 1.5 WSW 7 15 4 8 1012.6 1011.8 9.8
01/08:30am 13.7 11.7 11.4 86 1.2 W 13 20 7 11 1012.0 1011.2 9.8
01/08:00am 12.8 10.7 11.2 90 0.9 W 13 17 7 9 1011.6 1010.8 9.8
01/07:30am 12.2 10.4 10.8 91 0.7 W 11 15 6 8 1010.9 1010.2 9.8
01/07:00am 12.4 10.6 10.8 90 0.8 W 11 19 6 10 1010.3 1009.6 9.8
01/06:30am 12.6 10.8 11.0 90 0.8 W 11 15 6 8 1009.8 1009.1 9.8
01/06:00am 12.7 10.6 11.3 91 0.7 W 13 19 7 10 1009.5 1008.8 9.8
01/05:30am 13.0 11.4 11.4 90 0.9 WSW 11 17 6 9 1009.0 1008.3 9.8
01/05:00am 13.1 11.5 11.7 91 0.8 W 11 19 6 10 1008.6 1007.8 9.8
01/04:30am 13.3 11.8 11.9 91 0.8 W 11 19 6 10 1008.3 1007.5 9.8
01/04:00am 13.6 12.1 12.0 90 0.9 WSW 11 19 6 10 1008.2 1007.4 9.8
01/03:30am 13.9 12.5 12.3 90 0.9 WSW 11 20 6 11 1008.0 1007.2 9.8
01/03:00am 14.3 12.7 12.7 90 0.9 WSW 13 20 7 11 1007.9 1007.1 9.8
01/02:30am 14.7 13.2 13.1 90 0.9 WSW 13 22 7 12 1007.9 1007.1 9.8
01/02:00am 14.8 13.0 13.2 90 0.9 WSW 15 24 8 13 1007.7 1006.9 9.8
01/01:30am 14.9 13.7 13.9 94 0.6 WSW 13 24 7 13 1007.5 1006.7 9.6
01/01:00am 16.1 14.5 15.0 93 0.6 SW 17 30 9 16 1007.0 1006.3 9.4
01/12:30am 16.6 16.3 15.5 93 0.6 WSW 11 20 6 11 1006.8 1006.1 9.4
01/12:00am 16.9 17.2 15.9 94 0.6 WSW 9 20 5 11 1006.5 1005.8 9.4
 
Date/Time
EDT
Temp
°C
App
Temp
°C
Dew
Point
Rel
Hum
%
Delta-T
°C
Wind Press
QNH
hPa
Press
MSL
hPa
Rain
since 9 am
mm
Dir
 
Spd
km/h
Gust
km/h
Spd
kts
Gust
kts
28/11:30pm 17.2 17.6 16.2 94 0.6 WSW 9 19 5 10 1006.4 1005.7 9.4
28/11:00pm 17.3 16.6 16.3 94 0.6 WSW 15 24 8 13 1005.9 1005.2 9.4
28/10:30pm 17.5 17.6 16.4 93 0.7 W 11 17 6 9 1006.1 1005.4 9.0
28/10:00pm 17.5 17.6 16.4 93 0.7 WNW 11 17 6 9 1006.4 1005.7 7.6
28/09:30pm 17.6 17.7 16.5 93 0.7 W 11 19 6 10 1006.3 1005.6 6.0
28/09:00pm 17.6 18.4 16.3 92 0.8 W 7 13 4 7 1005.7 1005.0 4.6
28/08:30pm 17.9 18.0 16.4 91 0.9 W 11 22 6 12 1005.8 1005.1 3.4
28/08:02pm 18.6 14.0 16.0 85 1.6 WSW 35 56 19 30 1005.9 1005.2 1.2
28/08:00pm 18.7 13.6 15.9 84 1.7 WSW 37 56 20 30 1005.9 1005.2 1.2
28/07:45pm 23.2 19.5 15.0 60 4.9 WSW 28 67 15 36 1005.0 1004.2 0.0
28/07:38pm 23.3 21.4 15.1 60 4.9 WSW 19 46 10 25 1003.6 1002.8 0.0
28/07:30pm 25.4 25.4 16.3 57 5.6 WSW 11 22 6 12 1001.3 1000.5 0.0
28/07:00pm 25.8 25.2 14.6 50 6.8 WSW 11 24 6 13 1000.7 999.9 0.0
28/06:56pm 25.9 24.0 14.1 48 7.1 WSW 17 35 9 19 1000.7 999.9 0.0
28/06:30pm 30.9 28.4 9.7 27 12.1 NNW 13 22 7 12 1000.2 999.4 0.0
28/06:00pm 31.3 28.5 10.1 27 12.3 NNW 15 30 8 16 1000.3 999.5 0.0
28/05:30pm 31.5 27.3 9.7 26 12.5 NW 22 37 12 20 1000.8 1000.0 0.0
28/05:00pm 31.8 26.8 11.0 28 12.2 NNW 28 41 15 22 1001.3 1000.5 0.0
28/04:30pm 31.1 26.3 10.4 28 12.0 NW 26 41 14 22 1002.0 1001.3 0.0
28/04:00pm 31.2 26.6 11.1 29 11.8 NNW 26 44 14 24 1002.4 1001.7 0.0
28/03:30pm 30.7 25.5 11.6 31 11.2 NNW 30 50 16 27 1003.0 1002.2 0.0
28/03:06pm 30.0 25.3 12.0 33 10.6 NNW 28 50 15 27 1003.3 1002.5 0.0
28/03:00pm 29.9 26.3 11.9 33 10.6 NNW 22 41 12 22 1003.2 1002.4 0.0
28/02:30pm 28.2 24.6 11.7 36 9.6 NNW 22 32 12 17 1003.4 1002.6 0.0
28/02:00pm 27.6 24.2 11.2 36 9.5 NNW 20 30 11 16 1004.0 1003.2 0.0
28/01:30pm 27.2 23.8 12.4 40 8.7 NNW 22 37 12 20 1004.5 1003.7 0.0
28/01:00pm 27.0 24.1 13.0 42 8.3 N 20 33 11 18 1004.8 1004.0 0.0
28/12:30pm 26.2 23.3 13.0 44 7.8 N 20 33 11 18 1005.2 1004.4 0.0
28/12:00pm 25.3 25.4 13.8 49 6.9 NE 6 19 3 10 1006.0 1005.3 0.0
28/11:30am 23.6 24.7 13.5 53 5.9 CALM 0 4 0 2 1006.2 1005.5 0.0
28/11:00am 21.7 21.4 13.3 59 4.9 WSW 7 13 4 7 1006.7 1006.0 0.0
28/10:30am 22.8 20.8 12.7 53 5.8 WSW 15 28 8 15 1006.9 1006.2 0.0
28/10:00am 22.3 19.9 12.8 55 5.5 N 17 22 9 12 1006.1 1005.4 0.0
28/09:30am 21.6 19.2 12.7 57 5.1 N 17 22 9 12 1005.9 1005.2 0.0
28/09:00am 20.5 19.3 12.7 61 4.5 N 11 17 6 9 1006.4 1005.7 0.0
28/08:30am 20.0 19.3 12.0 60 4.5 NNW 7 11 4 6 1006.7 1006.0 0.0
28/08:00am 20.3 19.1 11.5 57 4.9 NW 9 17 5 9 1006.6 1005.9 0.0
28/07:30am 19.8 18.6 11.6 59 4.6 NNW 9 17 5 9 1006.3 1005.6 0.0
28/07:00am 18.9 17.9 12.4 66 3.7 N 9 13 5 7 1006.1 1005.4 0.0
28/06:30am 17.8 16.2 12.9 73 2.8 N 13 17 7 9 1006.0 1005.3 0.0
28/06:00am 16.9 15.8 13.2 79 2.1 N 11 15 6 8 1006.3 1005.6 0.0
28/05:30am 16.6 16.0 13.5 82 1.8 N 9 15 5 8 1006.6 1005.9 0.0
28/05:00am 15.9 15.9 13.6 86 1.3 NNE 6 7 3 4 1006.5 1005.8 0.0
28/04:30am 15.7 14.7 13.4 86 1.3 E 11 15 6 8 1005.9 1005.2 0.0
28/04:00am 15.3 15.2 13.2 87 1.2 E 6 7 3 4 1007.4 1006.6 0.0
28/03:30am 15.4 15.1 13.2 87 1.2 E 7 11 4 6 1007.8 1007.0 0.0
28/03:00am 15.2 15.0 13.1 87 1.2 ENE 6 7 3 4 1008.7 1007.9 0.0
28/02:30am 15.3 15.2 13.2 87 1.2 E 6 7 3 4 1009.2 1008.5 0.0
28/02:00am 15.3 15.2 13.2 87 1.2 ENE 6 7 3 4 1009.6 1008.9 0.0
28/01:30am 15.3 15.0 13.2 87 1.2 ENE 7 9 4 5 1010.1 1009.4 0.0
28/01:00am 15.2 14.5 13.1 87 1.2 NE 9 13 5 7 1010.3 1009.6 0.0
28/12:30am 15.3 15.0 12.8 85 1.4 E 6 9 3 5 1010.9 1010.2 0.0
28/12:00am 15.4 14.9 12.7 84 1.5 ESE 7 9 4 5 1011.1 1010.4 0.0
 
Date/Time
EDT
Temp
°C
App
Temp
°C
Dew
Point
Rel
Hum
%
Delta-T
°C
Wind Press
QNH
hPa
Press
MSL
hPa
Rain
since 9 am
mm
Dir
 
Spd
km/h
Gust
km/h
Spd
kts
Gust
kts
27/11:30pm 15.5 15.2 12.8 84 1.5 ESE 6 9 3 5 1011.4 1010.7 0.0
27/11:00pm 15.6 15.1 12.7 83 1.6 E 7 11 4 6 1011.4 1010.7 0.0
27/10:30pm 15.7 15.4 12.8 83 1.6 E 6 9 3 5 1011.6 1010.8 0.0
27/10:00pm 15.8 15.9 12.7 82 1.7 ESE 4 6 2 3 1011.7 1010.9 0.0
27/09:30pm 15.9 15.6 12.8 82 1.7 ESE 6 7 3 4 1011.3 1010.6 0.0
27/09:00pm 16.2 15.9 12.7 80 2.0 ESE 6 7 3 4 1011.3 1010.6 0.0
27/08:30pm 16.3 15.8 12.8 80 2.0 SE 7 9 4 5 1011.2 1010.5 0.0
27/08:00pm 16.7 16.2 12.8 78 2.2 SSE 7 13 4 7 1011.0 1010.3 0.0
27/07:30pm 17.2 16.4 12.9 76 2.4 SE 9 13 5 7 1010.7 1010.0 0.0
27/07:00pm 17.7 16.6 13.0 74 2.7 SE 11 15 6 8 1010.5 1009.8 0.0
27/06:30pm 18.2 17.1 13.1 72 2.9 ESE 11 17 6 9 1010.1 1009.4 0.0
27/06:00pm 18.3 16.5 13.2 72 2.9 ESE 15 20 8 11 1009.9 1009.2 0.0
27/05:30pm 19.0 16.9 13.6 71 3.1 SE 17 22 9 12 1010.0 1009.3 0.0
27/05:00pm 19.2 17.1 13.6 70 3.2 SE 17 24 9 13 1010.0 1009.3 0.0
27/04:30pm 19.9 17.9 13.8 68 3.5 SSE 17 24 9 13 1010.0 1009.3 0.0
27/04:00pm 20.6 18.2 13.8 65 4.0 SSE 19 28 10 15 1010.0 1009.3 0.0
27/03:30pm 23.6 21.2 8.8 39 8.0 S 11 17 6 9 1010.0 1009.3 0.0
27/03:00pm 24.6 21.9 9.0 37 8.5 SW 13 20 7 11 1010.2 1009.5 0.0
27/02:30pm 24.3 23.0 9.1 38 8.3 SSE 6 11 3 6 1010.3 1009.6 0.0
27/02:00pm 24.2 22.6 10.1 41 7.9 S 9 17 5 9 1010.4 1009.7 0.0
27/01:30pm 23.3 22.3 10.4 44 7.2 SW 6 19 3 10 1010.6 1009.9 0.0
27/01:00pm 22.3 21.4 10.5 47 6.6 SSW 6 11 3 6 1010.9 1010.2 0.0
27/12:30pm 21.3 20.4 10.5 50 6.0 SW 6 9 3 5 1011.2 1010.5 0.0
27/12:00pm 21.3 20.7 11.6 54 5.5 SE 6 11 3 6 1011.9 1011.1 0.0

Other Formats:

Comma delimited format used in spreadsheet applications
http://www.bom.gov.au/fwo/IDV60801/IDV60801.94863.axf

JavaScript Object Notation format (JSON) in row-major order
http://www.bom.gov.au/fwo/IDV60801/IDV60801.94863.json